Vidalia, Louisiana
Current Conditions -  °F | °C
As of 3:55 AM on Friday 28 Nov 2014 (Local Time) from KHEZ Reporting Station
Clear Clear  
Wind Chill:   Ceiling: Unl
Heat Index:   Visibility: 10mi
Dew Point: -2°   Wind: 3mph
Humidity: 75%   Direction: 90°E
Pressure: 30.42"   Gusts: NA
Location:  31.57°N, 91.43°W
Report Text: KHEZ 280955Z AUTO 09003KT 10SM CLR 02/M02 A3042 RMK AO1
Loading
Personal Weather Stations






























Interactive Weather Map New forecast layout! Learn more

10-Day Weather Forecast

Advertisements
Track Severe Weather on mobile